Time;durP1;ratioP1;P1;durP2;ratioP2;P2;SDS_P1;SDS_P2;PMS_P1;PMS_P2;Temp;Humidity;BMP_temperature;BMP_pressure;BME280_temperature;BME280_humidity;BME280_pressure;Samples;Min_cycle;Max_cycle;Signal;HPM_P1;HPM_P2
2023/09/04 00:01:28;;;;;;;1.40;1.30;;;;;;;;;;6153185;23;20152;-95
2023/09/04 00:03:56;;;;;;;1.08;1.05;;;;;;;;;;6153059;23;20156;-96
2023/09/04 00:06:24;;;;;;;2.28;1.40;;;;;;;;;;6153433;23;20167;-95
2023/09/04 00:08:57;;;;;;;1.63;1.48;;;;;;;;;;6153210;23;20159;-96
2023/09/04 00:11:25;;;;;;;1.55;1.45;;;;;;;;;;6153301;23;20156;-96
2023/09/04 00:13:54;;;;;;;1.95;1.70;;;;;;;;;;6153035;23;20167;-95
2023/09/04 00:16:22;;;;;;;1.40;1.30;;;;;;;;;;6153098;23;20175;-95
2023/09/04 00:18:50;;;;;;;3.15;2.47;;;;;;;;;;6153270;23;20167;-96
2023/09/04 00:21:17;;;;;;;1.48;1.38;;;;;;;;;;6153313;23;20180;-95
2023/09/04 00:23:45;;;;;;;1.58;1.48;;;;;;;;;;6153102;23;20144;-96
2023/09/04 02:02:20;;;;;;;2.40;2.20;;;;;;;;;;6205137;23;20178;-95
2023/09/04 02:04:48;;;;;;;1.38;1.27;;;;;;;;;;6214660;23;20158;-96
2023/09/04 02:07:16;;;;;;;1.58;1.48;;;;;;;;;;6215133;23;20146;-94
2023/09/04 02:09:44;;;;;;;1.63;1.52;;;;;;;;;;6215164;23;20150;-96
2023/09/04 02:12:11;;;;;;;2.42;1.75;;;;;;;;;;6214836;23;20146;-94
2023/09/04 02:14:39;;;;;;;1.60;1.50;;;;;;;;;;6214881;23;20146;-94
2023/09/04 02:17:06;;;;;;;2.63;1.50;;;;;;;;;;6215043;23;20177;-96
2023/09/04 02:19:36;;;;;;;1.50;1.40;;;;;;;;;;6215085;23;20158;-94
2023/09/04 02:22:04;;;;;;;1.70;1.52;;;;;;;;;;6214779;23;20177;-95
2023/09/04 02:24:33;;;;;;;2.15;1.50;;;;;;;;;;6214819;23;20147;-95
2023/09/04 02:27:01;;;;;;;1.30;1.20;;;;;;;;;;6215002;23;20172;-95
2023/09/04 02:29:29;;;;;;;2.08;1.48;;;;;;;;;;6215192;23;20153;-95
2023/09/04 02:31:57;;;;;;;1.25;1.23;;;;;;;;;;6214723;23;20151;-94
2023/09/04 02:34:25;;;;;;;1.52;1.42;;;;;;;;;;6214444;23;20159;-94
2023/09/04 02:36:54;;;;;;;1.40;1.30;;;;;;;;;;6214775;23;20169;-95
2023/09/04 02:39:21;;;;;;;1.45;1.35;;;;;;;;;;6214867;23;20143;-95
2023/09/04 02:41:49;;;;;;;2.40;1.52;;;;;;;;;;6214703;23;20143;-94
2023/09/04 02:44:17;;;;;;;1.40;1.30;;;;;;;;;;6214551;23;20147;-95
2023/09/04 02:46:44;;;;;;;0.90;0.90;;;;;;;;;;6214704;23;20170;-94
2023/09/04 02:49:12;;;;;;;1.40;1.30;;;;;;;;;;6214913;23;20153;-94
2023/09/04 02:51:39;;;;;;;1.15;1.15;;;;;;;;;;6214641;23;20147;-95
2023/09/04 02:54:09;;;;;;;1.48;1.20;;;;;;;;;;6214445;23;20165;-96
2023/09/04 02:56:36;;;;;;;1.40;1.30;;;;;;;;;;6214653;23;20147;-95
2023/09/04 02:59:04;;;;;;;1.27;1.17;;;;;;;;;;6214655;23;20166;-95
2023/09/04 03:01:34;;;;;;;1.27;1.17;;;;;;;;;;6214495;23;20154;-94
2023/09/04 03:04:02;;;;;;;1.75;1.20;;;;;;;;;;6214274;23;20162;-93
2023/09/04 03:06:32;;;;;;;1.60;1.50;;;;;;;;;;6188979;23;20155;-95
2023/09/04 03:09:00;;;;;;;1.90;1.80;;;;;;;;;;6214508;23;20150;-95
2023/09/04 03:11:29;;;;;;;2.40;1.80;;;;;;;;;;6214332;23;20151;-94
2023/09/04 03:13:57;;;;;;;1.45;1.35;;;;;;;;;;6214250;23;20162;-95
2023/09/04 03:16:24;;;;;;;1.60;1.23;;;;;;;;;;6214632;23;20159;-95
2023/09/04 03:18:52;;;;;;;2.88;1.30;;;;;;;;;;6214518;23;20290;-96
2023/09/04 03:21:20;;;;;;;1.50;1.50;;;;;;;;;;6214391;23;20143;-95
2023/09/04 03:23:47;;;;;;;1.58;1.48;;;;;;;;;;6214212;23;20143;-95
2023/09/04 03:26:15;;;;;;;1.70;1.60;;;;;;;;;;6214745;23;20227;-95
2023/09/04 03:28:45;;;;;;;1.67;1.58;;;;;;;;;;6214377;23;20151;-95
2023/09/04 03:31:14;;;;;;;1.48;1.35;;;;;;;;;;6214368;23;20150;-94
2023/09/04 03:33:42;;;;;;;2.28;2.08;;;;;;;;;;6213947;23;20158;-95
2023/09/04 03:36:11;;;;;;;2.08;1.90;;;;;;;;;;6214266;23;20146;-96
2023/09/04 03:38:39;;;;;;;3.05;2.85;;;;;;;;;;6214326;23;20143;-95
2023/09/04 03:41:06;;;;;;;3.13;2.00;;;;;;;;;;6214187;23;20154;-95
2023/09/04 03:43:35;;;;;;;1.80;1.70;;;;;;;;;;6214175;23;20142;-94
2023/09/04 03:46:04;;;;;;;3.28;1.80;;;;;;;;;;6214274;23;20158;-95
2023/09/04 03:48:32;;;;;;;2.17;1.70;;;;;;;;;;6214314;23;20142;-96
2023/09/04 03:51:02;;;;;;;2.60;1.70;;;;;;;;;;6208736;23;20147;-95
2023/09/04 03:53:29;;;;;;;1.30;1.20;;;;;;;;;;6209464;23;20163;-96
2023/09/04 03:56:04;;;;;;;1.00;1.00;;;;;;;;;;6209589;23;20158;-94
2023/09/04 03:58:32;;;;;;;1.52;1.42;;;;;;;;;;6209857;23;20197;-95
2023/09/04 04:01:00;;;;;;;1.40;1.30;;;;;;;;;;6209715;23;20242;-94
2023/09/04 04:03:29;;;;;;;2.35;1.33;;;;;;;;;;6209830;23;20151;-93
2023/09/04 04:05:57;;;;;;;1.27;1.17;;;;;;;;;;6210408;23;20147;-95
2023/09/04 04:08:24;;;;;;;1.50;1.40;;;;;;;;;;6210074;23;20147;-94
2023/09/04 04:10:53;;;;;;;1.13;1.02;;;;;;;;;;6210304;23;20151;-95
2023/09/04 04:13:21;;;;;;;1.50;1.40;;;;;;;;;;6210594;23;20170;-95
2023/09/04 04:15:49;;;;;;;1.10;1.10;;;;;;;;;;6209710;23;20153;-95
2023/09/04 04:18:16;;;;;;;1.10;1.10;;;;;;;;;;6209723;23;20195;-95
2023/09/04 04:20:45;;;;;;;1.05;1.05;;;;;;;;;;6211417;23;20151;-95
2023/09/04 04:23:13;;;;;;;1.63;1.52;;;;;;;;;;6211551;23;20161;-93
2023/09/04 04:25:41;;;;;;;1.13;1.10;;;;;;;;;;6211657;23;20157;-95
2023/09/04 04:28:08;;;;;;;1.40;1.30;;;;;;;;;;6211808;23;20164;-95
2023/09/04 04:30:36;;;;;;;2.17;1.35;;;;;;;;;;6211623;23;20158;-94
2023/09/04 04:33:04;;;;;;;1.23;1.10;;;;;;;;;;6211538;23;20155;-95
2023/09/04 04:35:32;;;;;;;1.20;1.10;;;;;;;;;;6211884;23;20223;-94
2023/09/04 04:38:01;;;;;;;2.08;1.00;;;;;;;;;;6211806;23;20150;-94
2023/09/04 04:40:30;;;;;;;1.63;1.52;;;;;;;;;;6211893;23;20158;-95
2023/09/04 04:42:58;;;;;;;1.50;1.40;;;;;;;;;;6211654;23;20150;-95
2023/09/04 04:45:26;;;;;;;1.20;1.10;;;;;;;;;;6211766;23;20157;-96
2023/09/04 04:47:53;;;;;;;1.08;0.93;;;;;;;;;;6211705;23;20147;-95
2023/09/04 04:50:21;;;;;;;1.27;1.17;;;;;;;;;;6211898;23;20147;-95
2023/09/04 04:52:49;;;;;;;1.20;1.10;;;;;;;;;;6212137;23;20150;-95
2023/09/04 04:55:18;;;;;;;1.00;1.00;;;;;;;;;;6212115;23;20171;-96
2023/09/04 04:57:46;;;;;;;1.60;1.50;;;;;;;;;;6212761;23;20150;-95
2023/09/04 05:00:14;;;;;;;1.50;1.10;;;;;;;;;;6211531;23;20338;-95
2023/09/04 05:02:42;;;;;;;1.13;1.00;;;;;;;;;;6212001;23;20159;-93
2023/09/04 05:05:10;;;;;;;1.20;1.15;;;;;;;;;;6213118;23;20151;-95
2023/09/04 05:07:41;;;;;;;1.00;1.00;;;;;;;;;;6214439;23;20153;-94
2023/09/04 05:10:12;;;;;;;1.42;1.33;;;;;;;;;;6212285;23;20162;-95
2023/09/04 05:12:41;;;;;;;1.95;1.33;;;;;;;;;;6212413;23;20150;-95
2023/09/04 05:15:10;;;;;;;1.35;1.25;;;;;;;;;;6211860;23;20186;-94
2023/09/04 05:17:37;;;;;;;2.55;1.17;;;;;;;;;;6212230;23;20333;-95
2023/09/04 05:20:07;;;;;;;1.00;1.00;;;;;;;;;;6212615;23;20157;-95
2023/09/04 05:22:34;;;;;;;1.08;1.08;;;;;;;;;;6212221;23;20161;-94
2023/09/04 05:25:02;;;;;;;0.90;0.90;;;;;;;;;;6212530;23;20147;-94
2023/09/04 05:27:30;;;;;;;0.85;0.85;;;;;;;;;;6213091;23;20249;-94
2023/09/04 05:29:59;;;;;;;1.02;0.93;;;;;;;;;;6212977;23;20151;-96
2023/09/04 05:32:27;;;;;;;1.00;1.00;;;;;;;;;;6213295;23;20166;-94
2023/09/04 05:34:54;;;;;;;0.90;0.90;;;;;;;;;;6213015;23;20169;-95
2023/09/04 05:37:23;;;;;;;1.00;1.00;;;;;;;;;;6213412;23;20150;-95
2023/09/04 05:39:51;;;;;;;0.70;0.70;;;;;;;;;;6213458;23;20162;-96
2023/09/04 05:42:18;;;;;;;1.55;1.45;;;;;;;;;;6212061;23;20151;-95
2023/09/04 05:44:46;;;;;;;1.38;1.30;;;;;;;;;;6213408;23;20165;-94
2023/09/04 05:47:15;;;;;;;1.65;1.50;;;;;;;;;;6213238;23;20151;-94
2023/09/04 05:49:43;;;;;;;1.60;1.50;;;;;;;;;;6214159;23;20143;-95
2023/09/04 05:52:10;;;;;;;1.55;1.45;;;;;;;;;;6216152;23;20147;-94
2023/09/04 05:54:40;;;;;;;1.55;1.45;;;;;;;;;;6216032;23;20162;-94
2023/09/04 05:57:08;;;;;;;2.80;2.05;;;;;;;;;;6216506;23;20169;-96
2023/09/04 05:59:46;;;;;;;1.73;1.63;;;;;;;;;;6216503;23;20146;-96
2023/09/04 06:02:15;;;;;;;1.48;1.38;;;;;;;;;;6215635;23;20154;-96
2023/09/04 06:04:44;;;;;;;1.80;1.45;;;;;;;;;;6216432;23;20143;-95
2023/09/04 06:07:11;;;;;;;1.42;1.33;;;;;;;;;;6216012;23;20158;-93
2023/09/04 06:09:39;;;;;;;1.30;1.20;;;;;;;;;;6215234;23;20150;-94
2023/09/04 06:12:08;;;;;;;1.42;1.33;;;;;;;;;;6215020;23;20158;-95
2023/09/04 06:14:36;;;;;;;1.27;1.17;;;;;;;;;;6215242;23;20162;-94
2023/09/04 06:17:03;;;;;;;1.60;1.48;;;;;;;;;;6215459;23;20146;-93
2023/09/04 06:19:33;;;;;;;1.42;1.33;;;;;;;;;;6215314;23;20151;-94
2023/09/04 06:22:01;;;;;;;1.85;1.60;;;;;;;;;;6215460;23;20153;-96
2023/09/04 06:24:28;;;;;;;1.50;1.40;;;;;;;;;;6215221;23;20147;-96
2023/09/04 06:27:13;;;;;;;1.67;1.58;;;;;;;;;;6215037;23;20183;-96
2023/09/04 06:29:40;;;;;;;1.50;1.40;;;;;;;;;;6214814;23;20151;-95
2023/09/04 06:32:08;;;;;;;1.38;1.27;;;;;;;;;;6214753;23;20182;-95
2023/09/04 06:34:43;;;;;;;1.35;1.25;;;;;;;;;;6214866;23;20158;-94
2023/09/04 06:37:15;;;;;;;1.60;1.50;;;;;;;;;;6213610;23;20180;-94
2023/09/04 06:39:46;;;;;;;1.55;1.45;;;;;;;;;;6211413;22;20205;-95
2023/09/04 06:42:13;;;;;;;1.88;1.52;;;;;;;;;;6214385;23;20151;-95
2023/09/04 06:44:41;;;;;;;1.20;1.10;;;;;;;;;;6214865;23;20154;-93
2023/09/04 06:47:15;;;;;;;1.70;1.60;;;;;;;;;;6214961;23;20147;-95
2023/09/04 06:49:47;;;;;;;2.50;2.30;;;;;;;;;;6215054;23;20154;-95
2023/09/04 06:52:15;;;;;;;4.55;2.00;;;;;;;;;;6212304;22;20217;-96
2023/09/04 10:33:01;;;;;;;1.58;1.40;;;;;;;;;;6173694;23;20193;-95
2023/09/04 10:35:46;;;;;;;5.97;1.55;;;;;;;;;;6215200;23;20158;-95
2023/09/04 10:38:26;;;;;;;1.98;1.80;;;;;;;;;;6215654;23;20158;-95
2023/09/04 11:59:18;;;;;;;5.20;2.58;;;;;;;;;;6198265;23;20162;-95
2023/09/04 12:01:47;;;;;;;16.92;8.50;;;;;;;;;;6214813;23;20314;-95
2023/09/04 12:04:16;;;;;;;2.80;2.58;;;;;;;;;;6214772;23;20150;-94
2023/09/04 12:19:12;;;;;;;1.88;1.73;;;;;;;;;;6173313;22;20287;-96
